BWU weather

Sydney Bankstown Airport
Sydney, New South Wales, Australia

Public forecast

Using degrees Celsius for public forecast. Weather courtesy of forecast.io.

METAR (pilot weather report)

Closest report is Sydney Kingsford Smith International Airport, 9.5 nm (17.6 km) E. Retrieved 2017/09/20 21:30 UTC (1 hour ago):

YSSY 202130Z 32008KT CAVOK 14/10 Q1017 NOSIG

TAF (pilot weather forecast)

Closest forecast is Sydney Kingsford Smith International Airport, 9.5 nm (17.6 km) E. Retrieved 2017/09/20 18:00 UTC (5 hours ago):

TAF YSSY 201716Z 2018/2124 29008KT CAVOK FM210200 04015KT CAVOK FM211000 33008KT CAVOK